createdAt,value
2019-05-22T00:01:25.559Z,27.60
2019-05-22T00:03:52.398Z,27.30
2019-05-22T00:06:19.148Z,27.00
2019-05-22T00:08:45.880Z,27.30
2019-05-22T00:11:12.717Z,27.00
2019-05-22T00:13:39.559Z,27.10
2019-05-22T00:16:06.287Z,27.40
2019-05-22T00:18:33.143Z,27.40
2019-05-22T00:20:59.877Z,27.50
2019-05-22T00:23:26.725Z,27.30
2019-05-22T00:25:53.563Z,26.80
2019-05-22T00:28:20.303Z,26.90
2019-05-22T00:30:47.104Z,26.80
2019-05-22T00:33:14.236Z,27.30
2019-05-22T00:35:41.055Z,27.30
2019-05-22T00:38:07.905Z,27.60
2019-05-22T00:40:34.922Z,27.60
2019-05-22T00:43:06.693Z,27.80
2019-05-22T00:45:30.026Z,28.00
2019-05-22T00:47:56.803Z,28.20
2019-05-22T00:50:23.610Z,28.40
2019-05-22T00:52:50.358Z,28.10
2019-05-22T00:55:17.300Z,28.20
2019-05-22T00:57:44.031Z,28.20
2019-05-22T01:00:10.789Z,28.20
2019-05-22T01:02:37.614Z,28.20
2019-05-22T01:05:04.465Z,28.20
2019-05-22T01:07:31.184Z,28.40
2019-05-22T01:09:57.940Z,28.20
2019-05-22T01:12:24.677Z,28.10
2019-05-22T01:14:51.525Z,28.30
2019-05-22T01:17:18.369Z,28.40
2019-05-22T01:19:45.207Z,28.10
2019-05-22T01:22:12.056Z,28.20
2019-05-22T01:24:38.823Z,28.40
2019-05-22T01:27:05.632Z,28.30
2019-05-22T01:29:32.471Z,28.30
2019-05-22T01:31:59.305Z,28.30
2019-05-22T01:34:26.058Z,28.30
2019-05-22T01:36:52.809Z,28.40
2019-05-22T01:39:19.626Z,28.50
2019-05-22T01:41:46.373Z,28.50
2019-05-22T01:44:13.212Z,28.40
2019-05-22T01:46:40.142Z,28.50
2019-05-22T01:49:07.106Z,28.50
2019-05-22T01:51:33.837Z,28.50
2019-05-22T01:54:00.676Z,28.60
2019-05-22T01:56:27.580Z,28.80
2019-05-22T01:58:54.251Z,29.10
2019-05-22T02:01:21.368Z,29.40
2019-05-22T02:03:48.143Z,29.50
2019-05-22T02:06:14.880Z,29.70
2019-05-22T02:08:41.663Z,29.80
2019-05-22T02:11:08.462Z,30.00
2019-05-22T02:13:35.164Z,30.00
2019-05-22T02:16:02.002Z,30.10
2019-05-22T02:18:28.898Z,30.00
2019-05-22T02:20:55.623Z,30.00
2019-05-22T02:23:22.419Z,30.10
2019-05-22T02:25:49.207Z,30.20
2019-05-22T02:28:15.953Z,30.20
2019-05-22T02:30:42.797Z,30.20
2019-05-22T02:33:09.547Z,30.30
2019-05-22T02:35:36.515Z,30.40
2019-05-22T02:38:03.313Z,30.40
2019-05-22T02:40:30.067Z,30.40
2019-05-22T02:42:56.949Z,30.40
2019-05-22T02:45:24.052Z,30.40
2019-05-22T02:47:50.785Z,30.40
2019-05-22T02:50:17.532Z,30.30
2019-05-22T02:52:44.371Z,30.30
2019-05-22T02:55:11.214Z,30.30
2019-05-22T02:57:37.957Z,30.30
2019-05-22T03:00:04.902Z,30.30
2019-05-22T03:02:31.740Z,30.30
2019-05-22T03:04:58.453Z,30.30
2019-05-22T03:07:25.412Z,30.30
2019-05-22T03:09:52.160Z,30.30
2019-05-22T03:12:18.891Z,30.30
2019-05-22T03:14:45.767Z,30.30
2019-05-22T03:17:12.582Z,30.30
2019-05-22T03:19:39.433Z,30.40
2019-05-22T03:22:06.269Z,30.40
2019-05-22T03:24:33.109Z,30.50
2019-05-22T03:26:59.839Z,30.50
2019-05-22T03:29:26.629Z,30.50
2019-05-22T03:31:53.425Z,30.50
2019-05-22T03:34:20.171Z,30.50
2019-05-22T03:36:47.005Z,30.50
2019-05-22T03:39:13.736Z,30.40
2019-05-22T03:41:40.480Z,30.50
2019-05-22T03:44:07.360Z,30.50
2019-05-22T03:46:34.088Z,30.50
2019-05-22T03:49:00.926Z,30.50
2019-05-22T03:51:27.742Z,30.50
2019-05-22T03:53:54.490Z,30.50
2019-05-22T03:56:21.336Z,30.50
2019-05-22T03:58:48.175Z,30.50
2019-05-22T04:01:15.013Z,30.50
2019-05-22T04:03:41.759Z,30.60
2019-05-22T04:06:08.597Z,30.60
2019-05-22T04:08:35.440Z,30.60
2019-05-22T04:11:02.282Z,30.70
2019-05-22T04:13:29.124Z,30.70
2019-05-22T04:15:55.965Z,30.70
2019-05-22T04:18:23.043Z,30.70
2019-05-22T04:20:50.162Z,30.70
2019-05-22T04:23:17.764Z,30.80
2019-05-22T04:25:44.666Z,30.80
2019-05-22T04:28:12.013Z,30.80
2019-05-22T04:30:38.744Z,30.80
2019-05-22T04:33:05.484Z,30.90
2019-05-22T04:35:32.336Z,30.90
2019-05-22T04:37:59.068Z,30.80
2019-05-22T04:40:25.826Z,30.80
2019-05-22T04:42:52.656Z,30.80
2019-05-22T04:45:19.387Z,30.90
2019-05-22T04:47:46.128Z,30.90
2019-05-22T04:50:12.978Z,31.00
2019-05-22T04:52:39.834Z,31.00
2019-05-22T04:55:06.557Z,31.00
2019-05-22T04:57:33.714Z,31.00
2019-05-22T05:00:00.446Z,31.00
2019-05-22T05:02:27.294Z,31.00
2019-05-22T05:04:54.638Z,31.00
2019-05-22T05:07:21.370Z,31.00
2019-05-22T05:09:48.118Z,31.10
2019-05-22T05:12:14.950Z,31.00
2019-05-22T05:14:41.701Z,31.00
2019-05-22T05:17:08.430Z,31.00
2019-05-22T05:19:35.273Z,31.10
2019-05-22T05:22:02.021Z,31.10
2019-05-22T05:24:28.758Z,31.10
2019-05-22T05:26:55.605Z,31.10
2019-05-22T05:29:22.328Z,31.00
2019-05-22T05:31:49.069Z,30.90
2019-05-22T05:34:15.921Z,30.90
2019-05-22T05:36:42.655Z,30.90
2019-05-22T05:39:09.390Z,31.00
2019-05-22T05:41:36.247Z,31.10
2019-05-22T05:44:02.970Z,31.20
2019-05-22T05:46:29.714Z,31.30
2019-05-22T05:48:56.558Z,31.40
2019-05-22T05:51:23.293Z,31.50
2019-05-22T05:53:50.035Z,31.60
2019-05-22T05:56:16.879Z,31.80
2019-05-22T05:58:43.619Z,32.00
2019-05-22T06:01:10.464Z,32.10
2019-05-22T06:03:37.307Z,32.30
2019-05-22T06:06:04.033Z,32.20
2019-05-22T06:08:30.779Z,32.40
2019-05-22T06:10:58.240Z,32.50
2019-05-22T06:13:25.079Z,32.60
2019-05-22T06:15:51.809Z,32.70
2019-05-22T06:18:18.651Z,32.70
2019-05-22T06:21:01.217Z,32.80
2019-05-22T06:23:13.896Z,32.90
2019-05-22T06:25:40.710Z,32.90
2019-05-22T06:28:07.451Z,32.70
2019-05-22T06:30:34.155Z,32.60
2019-05-22T06:33:00.979Z,32.50
2019-05-22T06:35:27.784Z,32.40
2019-05-22T06:37:54.515Z,32.30
2019-05-22T06:40:21.354Z,32.20
2019-05-22T06:42:48.207Z,32.00
2019-05-22T06:45:14.943Z,32.00
2019-05-22T06:47:41.891Z,31.90
2019-05-22T06:50:08.619Z,32.00
2019-05-22T06:52:35.362Z,32.10
2019-05-22T06:55:02.209Z,31.90
2019-05-22T06:57:29.248Z,32.00
2019-05-22T07:00:12.426Z,32.00
2019-05-22T07:02:24.468Z,32.10
2019-05-22T07:04:51.225Z,32.20
2019-05-22T07:07:17.946Z,32.20
2019-05-22T07:09:44.803Z,32.30
2019-05-22T07:12:11.490Z,32.40
2019-05-22T07:14:38.385Z,32.50
2019-05-22T07:17:05.208Z,32.40
2019-05-22T07:19:31.962Z,32.50
2019-05-22T07:21:58.685Z,32.60
2019-05-22T07:24:25.529Z,32.40
2019-05-22T07:26:52.287Z,32.50
2019-05-22T07:29:19.004Z,32.50
2019-05-22T07:31:45.860Z,32.50
2019-05-22T07:34:12.596Z,32.50
2019-05-22T07:36:39.324Z,32.50
2019-05-22T07:39:06.171Z,32.50
2019-05-22T07:41:32.921Z,32.60
2019-05-22T07:44:00.065Z,32.50
2019-05-22T07:46:30.523Z,32.50
2019-05-22T07:48:55.386Z,32.50
2019-05-22T07:51:22.231Z,32.50
2019-05-22T07:53:49.367Z,32.40
2019-05-22T07:56:16.119Z,32.40
2019-05-22T07:58:42.970Z,32.30
2019-05-22T08:01:09.758Z,32.20
2019-05-22T08:03:36.540Z,32.10
2019-05-22T08:06:03.396Z,32.00
2019-05-22T08:08:30.416Z,32.10
2019-05-22T08:10:57.168Z,32.10
2019-05-22T08:13:24.009Z,32.00
2019-05-22T08:15:51.063Z,32.00
2019-05-22T08:18:17.904Z,32.00
2019-05-22T08:20:44.746Z,32.10
2019-05-22T08:23:11.584Z,32.10
2019-05-22T08:25:38.427Z,32.10
2019-05-22T08:28:05.356Z,32.10
2019-05-22T08:30:32.199Z,32.10
2019-05-22T08:32:58.952Z,31.80
2019-05-22T08:35:25.691Z,32.00
2019-05-22T08:37:52.523Z,31.80
2019-05-22T08:40:19.376Z,31.60
2019-05-22T08:42:46.101Z,31.70
2019-05-22T08:45:12.938Z,31.80
2019-05-22T08:47:39.793Z,31.80
2019-05-22T08:50:06.643Z,31.70
2019-05-22T08:52:33.471Z,31.80
2019-05-22T08:55:00.204Z,32.00
2019-05-22T08:57:26.952Z,32.20
2019-05-22T08:59:53.794Z,32.30
2019-05-22T09:02:20.535Z,32.30
2019-05-22T09:04:47.490Z,32.30
2019-05-22T09:07:14.353Z,32.30
2019-05-22T09:09:41.190Z,32.30
2019-05-22T09:12:08.109Z,32.40
2019-05-22T09:14:34.951Z,32.50
2019-05-22T09:17:01.689Z,32.40
2019-05-22T09:19:28.418Z,32.40
2019-05-22T09:21:55.258Z,32.50
2019-05-22T09:24:21.998Z,32.50
2019-05-22T09:26:48.725Z,32.60
2019-05-22T09:29:15.987Z,32.50
2019-05-22T09:31:42.740Z,32.50
2019-05-22T09:34:09.595Z,32.60
2019-05-22T09:36:36.412Z,32.60
2019-05-22T09:39:03.164Z,32.70
2019-05-22T09:41:29.897Z,32.80
2019-05-22T09:43:56.729Z,32.90
2019-05-22T09:46:23.595Z,32.90
2019-05-22T09:48:50.325Z,33.00
2019-05-22T09:51:17.168Z,33.10
2019-05-22T09:53:44.514Z,33.30
2019-05-22T09:56:11.257Z,33.60
2019-05-22T09:58:38.153Z,33.60
2019-05-22T10:01:05.037Z,33.70
2019-05-22T10:03:31.731Z,33.80
2019-05-22T10:05:58.668Z,33.80
2019-05-22T10:08:25.463Z,33.70
2019-05-22T10:10:52.200Z,33.70
2019-05-22T10:13:19.300Z,33.70
2019-05-22T10:15:46.206Z,33.60
2019-05-22T10:18:13.024Z,33.40
2019-05-22T10:20:39.872Z,33.40
2019-05-22T10:23:15.408Z,33.30
2019-05-22T10:25:35.099Z,33.30
2019-05-22T10:28:01.887Z,33.40
2019-05-22T10:30:28.876Z,33.40
2019-05-22T10:32:55.609Z,33.40
2019-05-22T10:35:22.457Z,33.40
2019-05-22T10:37:49.908Z,33.40
2019-05-22T10:40:16.649Z,33.30
2019-05-22T10:42:44.823Z,33.40
2019-05-22T10:45:11.996Z,33.40
2019-05-22T10:47:38.848Z,33.40
2019-05-22T10:50:05.977Z,33.40
2019-05-22T10:52:32.711Z,33.40
2019-05-22T10:54:59.438Z,33.40
2019-05-22T10:57:26.280Z,33.40
2019-05-22T10:59:53.028Z,33.30
2019-05-22T11:02:19.770Z,33.30
2019-05-22T11:04:46.575Z,33.00
2019-05-22T11:07:13.339Z,32.80
2019-05-22T11:09:40.082Z,32.70
2019-05-22T11:12:06.933Z,32.70
2019-05-22T11:14:33.771Z,32.70
2019-05-22T11:17:01.540Z,32.70
2019-05-22T11:19:29.031Z,32.70
2019-05-22T11:21:57.122Z,32.80
2019-05-22T11:24:23.995Z,32.80
2019-05-22T11:26:51.291Z,33.00
2019-05-22T11:29:18.101Z,33.00
2019-05-22T11:31:44.800Z,33.20
2019-05-22T11:34:11.977Z,33.40
2019-05-22T11:36:38.729Z,33.50
2019-05-22T11:39:05.596Z,33.80
2019-05-22T11:41:32.564Z,34.00
2019-05-22T11:43:59.352Z,34.20
2019-05-22T11:46:26.082Z,34.40
2019-05-22T11:48:52.924Z,34.50
2019-05-22T11:51:19.686Z,34.60
2019-05-22T11:53:46.520Z,34.60
2019-05-22T11:56:13.352Z,34.50
2019-05-22T11:58:40.097Z,34.30
2019-05-22T12:01:06.936Z,34.10
2019-05-22T12:03:33.788Z,34.10
2019-05-22T12:06:00.642Z,33.80
2019-05-22T12:08:27.350Z,33.90
2019-05-22T12:10:54.195Z,33.90
2019-05-22T12:13:20.932Z,34.10
2019-05-22T12:15:47.786Z,34.10
2019-05-22T12:18:14.616Z,34.20
2019-05-22T12:20:41.365Z,34.10
2019-05-22T12:23:08.103Z,34.10
2019-05-22T12:25:34.944Z,34.20
2019-05-22T12:28:01.688Z,34.10
2019-05-22T12:30:28.437Z,34.10
2019-05-22T12:32:55.297Z,34.00
2019-05-22T12:35:22.304Z,34.00
2019-05-22T12:37:49.041Z,33.80
2019-05-22T12:40:15.890Z,33.70
2019-05-22T12:42:42.621Z,33.70
2019-05-22T12:45:09.361Z,33.70
2019-05-22T12:47:36.215Z,33.70
2019-05-22T12:50:03.061Z,33.80
2019-05-22T12:52:29.987Z,33.70
2019-05-22T12:54:56.828Z,33.70
2019-05-22T12:57:23.572Z,33.70
2019-05-22T12:59:50.307Z,33.70
2019-05-22T13:02:17.153Z,33.60
2019-05-22T13:04:43.891Z,33.50
2019-05-22T13:07:10.736Z,33.50
2019-05-22T13:09:37.586Z,33.40
2019-05-22T13:12:04.618Z,33.40
2019-05-22T13:14:31.372Z,33.30
2019-05-22T13:16:58.442Z,33.30
2019-05-22T13:19:25.251Z,33.20
2019-05-22T13:21:52.373Z,33.10
2019-05-22T13:24:19.343Z,33.00
2019-05-22T13:26:46.054Z,32.90
2019-05-22T13:29:12.817Z,32.80
2019-05-22T13:31:39.696Z,32.70
2019-05-22T13:34:06.517Z,32.60
2019-05-22T13:36:33.353Z,32.50
2019-05-22T13:39:00.198Z,32.40
2019-05-22T13:41:27.037Z,32.40
2019-05-22T13:43:53.882Z,32.30
2019-05-22T13:46:20.725Z,32.20
2019-05-22T13:48:47.454Z,32.20
2019-05-22T13:51:14.301Z,32.00
2019-05-22T13:53:41.135Z,31.90
2019-05-22T13:56:07.985Z,31.90
2019-05-22T13:58:34.832Z,31.80
2019-05-22T14:01:01.676Z,31.80
2019-05-22T14:03:28.509Z,31.80
2019-05-22T14:05:55.272Z,31.80
2019-05-22T14:08:22.081Z,31.80
2019-05-22T14:10:49.911Z,31.70
2019-05-22T14:13:18.584Z,31.70
2019-05-22T14:15:54.631Z,31.70
2019-05-22T14:18:13.726Z,31.70
2019-05-22T14:20:41.310Z,31.60
2019-05-22T14:23:08.152Z,31.60
2019-05-22T14:25:34.892Z,31.70
2019-05-22T14:28:01.665Z,31.70
2019-05-22T14:30:28.369Z,31.80
2019-05-22T14:32:55.103Z,31.80
2019-05-22T14:35:21.960Z,31.80
2019-05-22T14:37:48.990Z,31.90
2019-05-22T14:40:15.693Z,31.90
2019-05-22T14:42:42.483Z,31.90
2019-05-22T14:45:09.731Z,31.90
2019-05-22T14:47:36.460Z,32.00
2019-05-22T14:50:03.213Z,32.00
2019-05-22T14:52:30.051Z,31.90
2019-05-22T14:54:57.578Z,31.80
2019-05-22T14:57:24.354Z,31.70
2019-05-22T14:59:51.124Z,31.60
2019-05-22T15:02:17.924Z,31.50
2019-05-22T15:04:44.773Z,31.50
2019-05-22T15:07:11.608Z,31.50
2019-05-22T15:09:38.499Z,31.40
2019-05-22T15:12:05.318Z,31.30
2019-05-22T15:14:32.155Z,31.40
2019-05-22T15:16:58.994Z,31.20
2019-05-22T15:19:25.829Z,31.20
2019-05-22T15:21:53.174Z,31.30
2019-05-22T15:24:20.018Z,31.20
2019-05-22T15:26:46.751Z,31.00
2019-05-22T15:29:13.592Z,31.10
2019-05-22T15:31:40.441Z,31.00
2019-05-22T15:34:07.287Z,31.00
2019-05-22T15:36:34.075Z,31.00
2019-05-22T15:39:01.177Z,31.10
2019-05-22T15:41:28.242Z,31.10
2019-05-22T15:43:55.069Z,31.10
2019-05-22T15:46:22.225Z,31.10
2019-05-22T15:48:49.047Z,31.20
2019-05-22T15:51:15.901Z,31.20
2019-05-22T15:53:42.657Z,31.30
2019-05-22T15:56:10.770Z,31.40
2019-05-22T15:58:37.755Z,31.40
2019-05-22T16:01:04.947Z,31.40
2019-05-22T16:03:31.629Z,31.40
2019-05-22T16:05:58.481Z,31.30
2019-05-22T16:08:25.223Z,31.20
2019-05-22T16:10:51.972Z,31.30
2019-05-22T16:13:19.417Z,31.30
2019-05-22T16:15:46.266Z,31.30
2019-05-22T16:18:12.990Z,31.20
2019-05-22T16:20:40.097Z,31.30
2019-05-22T16:23:07.367Z,31.30
2019-05-22T16:25:34.337Z,31.20
2019-05-22T16:28:01.335Z,31.30
2019-05-22T16:30:28.125Z,31.30
2019-05-22T16:32:55.274Z,31.20
2019-05-22T16:35:22.391Z,31.20
2019-05-22T16:37:49.497Z,31.30
2019-05-22T16:40:16.817Z,31.10
2019-05-22T16:42:44.171Z,31.00
2019-05-22T16:45:10.998Z,30.90
2019-05-22T16:47:37.743Z,30.90
2019-05-22T16:50:05.098Z,30.80
2019-05-22T16:52:31.800Z,30.70
2019-05-22T16:54:58.585Z,30.70
2019-05-22T16:57:25.680Z,30.70
2019-05-22T16:59:52.578Z,30.60
2019-05-22T17:02:19.309Z,30.60
2019-05-22T17:04:46.162Z,30.60
2019-05-22T17:07:14.180Z,30.50
2019-05-22T17:09:40.963Z,30.50
2019-05-22T17:12:07.824Z,30.50
2019-05-22T17:14:34.742Z,30.50
2019-05-22T17:17:02.497Z,30.30
2019-05-22T17:19:29.564Z,30.20
2019-05-22T17:21:56.403Z,30.20
2019-05-22T17:24:23.132Z,30.20
2019-05-22T17:26:50.035Z,30.20
2019-05-22T17:29:16.921Z,30.20
2019-05-22T17:31:43.714Z,30.10
2019-05-22T17:34:10.815Z,30.10
2019-05-22T17:36:37.565Z,29.90
2019-05-22T17:39:04.604Z,29.70
2019-05-22T17:41:31.437Z,29.30
2019-05-22T17:43:58.291Z,29.40
2019-05-22T17:46:25.039Z,29.50
2019-05-22T17:48:52.368Z,29.30
2019-05-22T17:51:19.224Z,29.20
2019-05-22T17:53:45.917Z,28.80
2019-05-22T17:56:13.417Z,28.80
2019-05-22T17:58:40.167Z,29.00
2019-05-22T18:01:07.013Z,29.20
2019-05-22T18:03:33.879Z,29.40
2019-05-22T18:06:01.385Z,29.20
2019-05-22T18:08:28.245Z,29.40
2019-05-22T18:10:55.481Z,29.10
2019-05-22T18:13:22.234Z,29.20
2019-05-22T18:15:49.077Z,29.10
2019-05-22T18:18:15.866Z,29.20
2019-05-22T18:20:44.221Z,29.10
2019-05-22T18:23:11.090Z,29.00
2019-05-22T18:25:37.963Z,29.10
2019-05-22T18:28:04.716Z,29.40
2019-05-22T18:30:31.440Z,29.40
2019-05-22T18:32:58.299Z,29.40
2019-05-22T18:35:25.143Z,29.50
2019-05-22T18:37:51.868Z,29.40
2019-05-22T18:40:18.723Z,29.40
2019-05-22T18:42:45.867Z,29.50
2019-05-22T18:45:12.705Z,29.60
2019-05-22T18:47:39.549Z,29.60
2019-05-22T18:50:06.396Z,29.50
2019-05-22T18:52:41.155Z,29.40
2019-05-22T18:55:01.877Z,29.20
2019-05-22T18:57:29.059Z,29.00
2019-05-22T19:00:02.965Z,29.10
2019-05-22T19:02:24.282Z,28.90
2019-05-22T19:04:50.982Z,28.70
2019-05-22T19:07:17.755Z,28.90
2019-05-22T19:09:44.605Z,28.50
2019-05-22T19:12:11.320Z,28.60
2019-05-22T19:14:38.073Z,28.60
2019-05-22T19:17:04.923Z,28.50
2019-05-22T19:19:31.660Z,28.60
2019-05-22T19:21:58.515Z,28.60
2019-05-22T19:24:25.305Z,28.60
2019-05-22T19:26:52.016Z,28.60
2019-05-22T19:29:18.823Z,28.50
2019-05-22T19:31:45.677Z,28.30
2019-05-22T19:34:12.513Z,28.50
2019-05-22T19:36:42.053Z,28.60
2019-05-22T19:39:09.549Z,28.60
2019-05-22T19:41:36.320Z,28.70
2019-05-22T19:44:03.160Z,28.40
2019-05-22T19:46:29.958Z,28.40
2019-05-22T19:48:56.735Z,28.40
2019-05-22T19:51:23.493Z,28.30
2019-05-22T19:53:50.765Z,28.40
2019-05-22T19:56:17.568Z,28.50
2019-05-22T19:58:44.294Z,28.50
2019-05-22T20:01:11.344Z,28.50
2019-05-22T20:03:38.099Z,28.40
2019-05-22T20:06:04.837Z,28.50
2019-05-22T20:08:32.085Z,28.50
2019-05-22T20:10:58.812Z,28.50
2019-05-22T20:13:25.552Z,28.40
2019-05-22T20:15:52.617Z,28.40
2019-05-22T20:18:19.336Z,28.30
2019-05-22T20:20:46.410Z,28.30
2019-05-22T20:23:13.437Z,28.30
2019-05-22T20:25:40.282Z,28.20
2019-05-22T20:28:07.016Z,28.10
2019-05-22T20:30:34.207Z,28.10
2019-05-22T20:33:01.836Z,28.20
2019-05-22T20:35:28.567Z,28.10
2019-05-22T20:37:55.421Z,28.20
2019-05-22T20:40:22.145Z,28.30
2019-05-22T20:42:48.888Z,28.40
2019-05-22T20:45:15.680Z,28.20
2019-05-22T20:47:42.464Z,28.40
2019-05-22T20:50:09.182Z,28.40
2019-05-22T20:52:36.556Z,28.40
2019-05-22T20:55:03.327Z,28.50
2019-05-22T20:57:30.443Z,28.60
2019-05-22T20:59:57.291Z,28.60
2019-05-22T21:02:24.251Z,28.70
2019-05-22T21:04:51.079Z,28.90
2019-05-22T21:07:18.333Z,28.80
2019-05-22T21:09:45.172Z,28.90
2019-05-22T21:12:11.866Z,28.90
2019-05-22T21:14:38.660Z,28.70
2019-05-22T21:17:05.358Z,28.70
2019-05-22T21:19:32.229Z,28.60
2019-05-22T21:21:59.071Z,28.60
2019-05-22T21:24:25.917Z,28.40
2019-05-22T21:26:52.647Z,28.30
2019-05-22T21:29:19.483Z,28.40
2019-05-22T21:31:47.841Z,28.40
2019-05-22T21:34:14.835Z,28.40
2019-05-22T21:36:41.655Z,28.60
2019-05-22T21:39:08.384Z,28.50
2019-05-22T21:41:35.123Z,28.60
2019-05-22T21:44:01.974Z,28.70
2019-05-22T21:46:28.673Z,28.70
2019-05-22T21:48:55.453Z,28.80
2019-05-22T21:51:22.297Z,28.80
2019-05-22T21:53:49.026Z,28.90
2019-05-22T21:56:15.764Z,29.00
2019-05-22T21:58:42.578Z,29.00
2019-05-22T22:01:09.369Z,29.10
2019-05-22T22:03:36.059Z,29.10
2019-05-22T22:06:02.825Z,29.20
2019-05-22T22:08:29.575Z,29.30
2019-05-22T22:10:56.271Z,29.20
2019-05-22T22:13:23.146Z,29.30
2019-05-22T22:15:49.904Z,29.40
2019-05-22T22:18:16.639Z,29.30
2019-05-22T22:20:43.467Z,29.40
2019-05-22T22:23:10.319Z,29.40
2019-05-22T22:25:37.467Z,29.50
2019-05-22T22:28:04.496Z,29.40
2019-05-22T22:30:31.429Z,29.50
2019-05-22T22:32:58.526Z,29.50
2019-05-22T22:35:25.959Z,29.40
2019-05-22T22:37:53.225Z,29.50
2019-05-22T22:40:20.285Z,29.30
2019-05-22T22:42:47.098Z,29.30
2019-05-22T22:45:13.841Z,29.20
2019-05-22T22:47:40.571Z,29.20
2019-05-22T22:50:07.420Z,29.10
2019-05-22T22:52:34.191Z,29.10
2019-05-22T22:55:01.001Z,29.10
2019-05-22T22:57:27.767Z,29.10
2019-05-22T22:59:54.571Z,29.00
2019-05-22T23:02:21.309Z,29.10
2019-05-22T23:04:48.063Z,29.10
2019-05-22T23:07:14.788Z,29.20
2019-05-22T23:09:41.630Z,29.20
2019-05-22T23:12:08.476Z,29.00
2019-05-22T23:14:35.252Z,29.10
2019-05-22T23:17:02.062Z,29.20
2019-05-22T23:19:28.895Z,29.20
2019-05-22T23:21:55.633Z,29.20
2019-05-22T23:24:22.420Z,29.20
2019-05-22T23:26:49.320Z,29.20
2019-05-22T23:29:16.063Z,29.20
2019-05-22T23:31:42.909Z,29.10
2019-05-22T23:34:09.740Z,29.00
2019-05-22T23:36:36.490Z,29.10
2019-05-22T23:39:03.235Z,29.20
2019-05-22T23:41:30.064Z,29.40
2019-05-22T23:43:56.924Z,29.50
2019-05-22T23:46:23.648Z,29.60
2019-05-22T23:48:50.441Z,29.60
2019-05-22T23:51:17.221Z,29.60
2019-05-22T23:53:44.022Z,29.70
2019-05-22T23:56:10.914Z,29.50
2019-05-22T23:58:51.530Z,29.50
